Time;durP1;ratioP1;P1;durP2;ratioP2;P2;SDS_P1;SDS_P2;PMS_P1;PMS_P2;Temp;Humidity;BMP_temperature;BMP_pressure;BME280_temperature;BME280_humidity;BME280_pressure;Samples;Min_cycle;Max_cycle;Signal;HPM_P1;HPM_P2
2024/02/28 00:03:11;;;;;;;70.67;24.97;;;;;;;8.45;100.00;100771.81;5148237;55;1142993;-81
2024/02/28 00:08:19;;;;;;;68.47;24.07;;;;;;;8.44;100.00;100770.13;5113139;56;1142723;-81
2024/02/28 00:13:24;;;;;;;57.65;25.30;;;;;;;8.44;100.00;100763.06;5112597;55;1143060;-80
2024/02/28 00:18:31;;;;;;;64.77;26.40;;;;;;;8.44;100.00;100768.34;5128428;55;1142996;-84
2024/02/28 00:23:36;;;;;;;57.10;20.20;;;;;;;8.42;100.00;100766.27;5166979;55;1142952;-82
2024/02/28 00:28:42;;;;;;;54.50;21.67;;;;;;;8.37;100.00;100768.38;5113496;55;1143226;-83
2024/02/28 00:33:47;;;;;;;48.10;21.87;;;;;;;8.32;100.00;100767.81;5112606;56;1143118;-82
2024/02/28 00:38:53;;;;;;;53.40;20.77;;;;;;;8.32;100.00;100773.56;5133035;56;1142951;-83
2024/02/28 00:43:59;;;;;;;45.40;20.53;;;;;;;8.32;100.00;100778.36;5124769;55;1142735;-81
2024/02/28 00:49:04;;;;;;;46.80;21.90;;;;;;;8.31;100.00;100772.68;5200080;55;1142737;-82
2024/02/28 00:54:11;;;;;;;50.20;21.75;;;;;;;8.39;100.00;100777.51;5122893;56;1142776;-82
2024/02/28 00:59:16;;;;;;;51.13;24.07;;;;;;;8.39;100.00;100773.08;4992832;56;1143283;-83
2024/02/28 01:04:22;;;;;;;53.13;21.80;;;;;;;8.37;100.00;100775.44;5065955;56;1142999;-83
2024/02/28 01:09:28;;;;;;;53.38;22.76;;;;;;;8.33;100.00;100782.69;5100739;54;1142821;-84
2024/02/28 01:14:33;;;;;;;48.20;20.43;;;;;;;8.33;100.00;100774.78;5133482;55;1143007;-84
2024/02/28 01:19:39;;;;;;;37.33;18.13;;;;;;;8.30;100.00;100770.98;5088372;54;1142837;-83
2024/02/28 01:24:44;;;;;;;44.57;18.63;;;;;;;8.22;100.00;100765.38;5080240;56;1142769;-82
2024/02/28 01:29:50;;;;;;;36.73;18.60;;;;;;;8.18;100.00;100771.77;5132871;55;1143360;-83
2024/02/28 01:34:56;;;;;;;34.07;16.53;;;;;;;8.17;100.00;100766.60;5112484;55;1143077;-83
2024/02/28 01:40:01;;;;;;;32.50;15.00;;;;;;;8.18;100.00;100766.98;5112640;55;1143275;-82
2024/02/28 01:45:09;;;;;;;36.37;16.73;;;;;;;8.16;100.00;100759.64;5133281;55;1142828;-85
2024/02/28 01:50:14;;;;;;;33.03;16.20;;;;;;;8.10;100.00;100755.59;5093711;56;1143061;-82
2024/02/28 01:55:20;;;;;;;29.90;15.70;;;;;;;7.95;100.00;100752.14;5026729;56;1143028;-83
2024/02/28 02:00:29;;;;;;;34.98;17.16;;;;;;;7.91;100.00;100754.61;5041946;55;1142774;-83
2024/02/28 02:05:34;;;;;;;32.50;17.07;;;;;;;7.86;100.00;100752.73;5123115;54;1142767;-83
2024/02/28 02:10:40;;;;;;;29.65;15.55;;;;;;;7.88;100.00;100752.64;5102881;54;1142946;-82
2024/02/28 02:15:45;;;;;;;36.03;16.07;;;;;;;7.90;100.00;100755.55;5098283;56;1143010;-83
2024/02/28 02:20:55;;;;;;;34.37;16.10;;;;;;;7.95;100.00;100746.88;5073460;56;1143064;-81
2024/02/28 02:26:01;;;;;;;31.90;15.13;;;;;;;7.94;100.00;100747.00;5019428;55;1142971;-82
2024/02/28 02:31:07;;;;;;;31.40;15.53;;;;;;;8.00;100.00;100743.96;5019426;55;1142955;-83
2024/02/28 02:36:12;;;;;;;35.43;17.57;;;;;;;8.05;100.00;100748.48;5039227;55;1151210;-84
2024/02/28 02:41:19;;;;;;;41.23;18.37;;;;;;;8.04;100.00;100745.00;5019099;55;1142956;-84
2024/02/28 02:46:24;;;;;;;49.05;19.62;;;;;;;8.04;100.00;100742.83;5015437;56;1143004;-84
2024/02/28 02:51:30;;;;;;;36.40;18.48;;;;;;;8.00;100.00;100740.86;5019420;56;1142756;-81
2024/02/28 02:56:36;;;;;;;46.70;18.40;;;;;;;7.98;100.00;100741.89;5044048;56;1143035;-82
2024/02/28 03:01:41;;;;;;;43.57;19.07;;;;;;;7.95;100.00;100756.56;5153611;54;1142825;-82
2024/02/28 03:06:47;;;;;;;39.53;18.60;;;;;;;7.92;100.00;100746.25;5199820;54;1142853;-82
2024/02/28 03:11:52;;;;;;;43.90;18.50;;;;;;;7.89;100.00;100746.43;5215039;53;1142614;-83
2024/02/28 03:16:58;;;;;;;41.67;18.80;;;;;;;7.88;100.00;100750.85;5182961;55;1142951;-83
2024/02/28 03:22:04;;;;;;;43.07;20.00;;;;;;;7.88;100.00;100745.59;5255071;54;1142828;-83
2024/02/28 03:27:09;;;;;;;40.70;18.67;;;;;;;7.82;100.00;100756.48;5299225;54;1142822;-84
2024/02/28 03:32:15;;;;;;;36.63;18.93;;;;;;;7.83;100.00;100759.97;5257078;55;1199667;-81
2024/02/28 03:37:21;;;;;;;45.87;20.73;;;;;;;7.85;100.00;100755.45;5279009;55;1143095;-81
2024/02/28 03:42:26;;;;;;;40.98;19.55;;;;;;;7.80;100.00;100745.20;5278941;54;1142898;-82
2024/02/28 03:47:32;;;;;;;43.75;18.82;;;;;;;7.74;100.00;100757.45;5299430;54;1142824;-83
2024/02/28 03:52:37;;;;;;;46.17;19.63;;;;;;;7.68;100.00;100763.08;5164199;55;1142765;-83
2024/02/28 03:57:44;;;;;;;44.30;20.20;;;;;;;7.58;100.00;100766.77;5102626;56;1142844;-82
2024/02/28 04:02:49;;;;;;;42.93;20.80;;;;;;;7.57;100.00;100766.85;5186290;55;1142900;-82
2024/02/28 04:07:55;;;;;;;40.13;19.33;;;;;;;7.56;100.00;100767.32;5165832;55;1142901;-82
2024/02/28 04:13:01;;;;;;;43.63;20.20;;;;;;;7.58;100.00;100771.17;5138096;55;1143067;-82
2024/02/28 04:18:06;;;;;;;38.07;18.63;;;;;;;7.54;100.00;100773.61;5207392;55;1142655;-82
2024/02/28 04:23:12;;;;;;;41.63;18.93;;;;;;;7.54;100.00;100770.52;5046573;56;1142922;-84
2024/02/28 04:28:18;;;;;;;40.37;18.53;;;;;;;7.57;100.00;100768.17;5012238;56;1143189;-83
2024/02/28 04:33:23;;;;;;;38.28;16.65;;;;;;;7.59;100.00;100767.14;4920084;57;1142917;-82
2024/02/28 04:38:29;;;;;;;33.10;16.83;;;;;;;7.57;100.00;100767.70;4982994;57;1143278;-80
2024/02/28 04:43:35;;;;;;;35.27;17.67;;;;;;;7.58;100.00;100779.08;5014449;57;1143047;-82
2024/02/28 04:48:41;;;;;;;36.03;17.23;;;;;;;7.50;100.00;100782.16;5092332;56;1152497;-79
2024/02/28 04:53:46;;;;;;;37.70;19.03;;;;;;;7.44;100.00;100784.33;5118195;56;1143001;-80
2024/02/28 04:58:52;;;;;;;37.67;18.57;;;;;;;7.45;100.00;100783.39;5010790;57;1142804;-80
2024/02/28 05:03:57;;;;;;;40.27;21.03;;;;;;;7.49;100.00;100787.51;5090699;56;1142887;-80
2024/02/28 05:09:03;;;;;;;43.27;21.50;;;;;;;7.51;100.00;100794.38;5032835;57;1142966;-80
2024/02/28 05:14:11;;;;;;;47.90;21.87;;;;;;;7.58;100.00;100790.92;5177145;54;1142879;-80
2024/02/28 05:19:19;;;;;;;32.27;18.97;;;;;;;7.55;100.00;100789.31;5138073;55;1142807;-80
2024/02/28 05:24:25;;;;;;;35.23;19.37;;;;;;;7.56;100.00;100788.38;5117005;55;1142954;-80
2024/02/28 05:29:31;;;;;;;34.92;17.15;;;;;;;7.56;100.00;100801.54;5144091;55;1142990;-80
2024/02/28 05:34:38;;;;;;;38.27;18.67;;;;;;;7.59;100.00;100800.05;5123358;55;1142687;-80
2024/02/28 05:39:44;;;;;;;46.40;20.10;;;;;;;7.66;100.00;100805.76;5103046;56;1142905;-80
2024/02/28 05:44:55;;;;;;;47.10;19.53;;;;;;;7.71;100.00;100807.66;5185585;55;1142843;-80
2024/02/28 05:50:34;;;;;;;;;;;;;;;;;;;;;
2024/02/28 05:55:53;;;;;;;54.97;24.83;;;;;;;7.87;100.00;100825.52;5423741;53;46771;-79
2024/02/28 06:00:59;;;;;;;72.17;26.97;;;;;;;7.88;100.00;100841.70;5170626;55;1138929;-79
2024/02/28 06:06:05;;;;;;;72.17;25.43;;;;;;;7.84;100.00;100848.56;5148148;55;1142985;-79
2024/02/28 06:11:11;;;;;;;64.67;23.30;;;;;;;7.81;100.00;100855.32;5183552;54;1142832;-79
2024/02/28 06:16:18;;;;;;;69.37;25.27;;;;;;;7.71;100.00;100862.47;5157013;55;1142862;-78
2024/02/28 06:21:24;;;;;;;75.20;23.07;;;;;;;7.60;100.00;100866.22;5129319;55;1142688;-78
2024/02/28 06:26:31;;;;;;;77.70;25.55;;;;;;;7.49;100.00;100867.31;5136590;54;1143158;-78
2024/02/28 06:31:37;;;;;;;83.57;22.70;;;;;;;7.45;100.00;100869.77;5155798;55;1142761;-78
2024/02/28 06:36:42;;;;;;;71.60;23.43;;;;;;;7.39;100.00;100876.23;5148309;54;1143163;-78
2024/02/28 06:41:51;;;;;;;70.90;23.10;;;;;;;7.39;100.00;100872.28;5280325;54;1142847;-78
2024/02/28 06:46:55;;;;;;;62.40;19.60;;;;;;;7.55;100.00;100869.59;5301670;54;1142788;-78
2024/02/28 06:52:01;;;;;;;45.47;19.63;;;;;;;7.59;100.00;100871.11;5279087;54;1142904;-78
2024/02/28 06:57:06;;;;;;;80.93;22.07;;;;;;;7.60;100.00;100874.59;5272737;54;1142818;-78
2024/02/28 07:02:12;;;;;;;66.93;21.17;;;;;;;7.64;100.00;100874.29;5309787;54;1143055;-79
2024/02/28 07:07:18;;;;;;;38.73;17.63;;;;;;;7.63;100.00;100879.67;5293389;54;1143117;-78
2024/02/28 07:12:24;;;;;;;45.10;18.67;;;;;;;7.60;100.00;100888.59;5272752;54;1143098;-78
2024/02/28 07:17:30;;;;;;;33.60;19.67;;;;;;;7.50;100.00;100892.69;5290053;54;1142971;-79
2024/02/28 07:22:35;;;;;;;35.78;18.42;;;;;;;7.41;100.00;100901.14;5316082;54;1143063;-78
2024/02/28 07:27:41;;;;;;;38.77;18.97;;;;;;;7.32;100.00;100899.91;5309871;54;1142811;-79
2024/02/28 07:32:46;;;;;;;43.17;20.33;;;;;;;7.27;100.00;100902.41;5310556;54;1142781;-79
2024/02/28 07:37:52;;;;;;;51.93;24.17;;;;;;;7.23;100.00;100914.88;5332315;54;1142775;-78
2024/02/28 07:42:57;;;;;;;53.80;24.90;;;;;;;7.15;100.00;100909.70;5311503;54;1140661;-78
2024/02/28 07:48:03;;;;;;;51.63;26.43;;;;;;;7.08;100.00;100919.70;5311490;54;1140882;-79
2024/02/28 07:53:09;;;;;;;44.70;21.53;;;;;;;7.06;100.00;100920.25;5305433;54;1140686;-78
2024/02/28 07:58:16;;;;;;;43.10;20.60;;;;;;;7.09;100.00;100921.87;5133852;55;1141101;-78
2024/02/28 08:03:22;;;;;;;35.73;18.60;;;;;;;7.09;100.00;100918.77;5051075;56;1140642;-78
2024/02/28 08:08:27;;;;;;;38.60;21.03;;;;;;;7.11;100.00;100919.53;5082883;56;1140922;-78
2024/02/28 08:13:34;;;;;;;43.15;21.73;;;;;;;7.13;100.00;100924.25;5057961;56;1140838;-78
2024/02/28 08:18:39;;;;;;;39.97;19.23;;;;;;;7.11;100.00;100930.05;5038055;56;1140616;-78
2024/02/28 08:23:45;;;;;;;44.37;21.53;;;;;;;7.08;100.00;100936.80;5037797;56;1140593;-78
2024/02/28 08:28:50;;;;;;;49.70;20.00;;;;;;;7.13;100.00;100928.19;5057487;56;1143010;-79
2024/02/28 08:33:56;;;;;;;55.60;21.67;;;;;;;7.19;100.00;100930.92;5037675;56;1142615;-79
2024/02/28 08:39:04;;;;;;;49.70;24.33;;;;;;;7.26;100.00;100930.97;5037207;56;1142962;-78
2024/02/28 08:44:09;;;;;;;42.73;21.40;;;;;;;7.29;100.00;100926.38;5057378;56;1142809;-79
2024/02/28 08:49:17;;;;;;;44.80;20.77;;;;;;;7.30;100.00;100940.39;5059683;56;1142814;-79
2024/02/28 08:54:22;;;;;;;38.33;19.83;;;;;;;7.28;100.00;100944.42;5128800;55;1143058;-79
2024/02/28 08:59:28;;;;;;;51.25;21.15;;;;;;;7.30;100.00;100943.02;5140327;55;1143143;-79
2024/02/28 09:04:33;;;;;;;48.42;20.52;;;;;;;7.32;100.00;100939.37;5092288;56;1142596;-79
2024/02/28 09:09:44;;;;;;;45.67;21.63;;;;;;;7.42;100.00;100940.99;5097988;56;1142821;-78
2024/02/28 09:14:56;;;;;;;40.37;20.30;;;;;;;7.48;100.00;100943.75;5098469;56;1143002;-79
2024/02/28 09:19:57;;;;;;;29.47;17.23;;;;;;;7.47;100.00;100949.48;5101956;56;1143188;-79
2024/02/28 09:25:06;;;;;;;32.63;18.23;;;;;;;7.47;100.00;100948.16;5056809;56;1142822;-78
2024/02/28 09:30:12;;;;;;;32.87;17.30;;;;;;;7.49;100.00;100962.05;5082651;55;1142799;-79
2024/02/28 09:35:17;;;;;;;25.83;15.33;;;;;;;7.54;100.00;100963.11;5080293;56;1185187;-79
2024/02/28 09:40:23;;;;;;;26.70;14.18;;;;;;;7.53;100.00;100962.73;5095553;56;1236305;-79
2024/02/28 09:45:30;;;;;;;24.97;12.97;;;;;;;7.54;100.00;100981.54;5061118;55;1142976;-79
2024/02/28 09:50:36;;;;;;;27.00;15.68;;;;;;;7.49;100.00;100976.99;5112555;55;1143038;-79
2024/02/28 09:55:42;;;;;;;28.73;15.13;;;;;;;7.49;100.00;100977.84;5054536;56;1143066;-79
2024/02/28 10:00:49;;;;;;;31.30;15.33;;;;;;;7.50;100.00;100976.91;5116833;55;1143160;-78
2024/02/28 10:05:54;;;;;;;37.83;17.20;;;;;;;7.51;100.00;100983.02;5213629;55;1224648;-78
2024/02/28 10:11:00;;;;;;;36.20;17.47;;;;;;;7.47;100.00;100986.33;5256751;54;1143615;-78
2024/02/28 10:16:08;;;;;;;30.43;15.37;;;;;;;7.45;100.00;100993.92;5326427;54;1142944;-79
2024/02/28 10:21:19;;;;;;;32.70;14.80;;;;;;;7.48;100.00;100992.44;5293241;54;1142998;-78
2024/02/28 10:26:21;;;;;;;27.00;12.73;;;;;;;7.49;100.00;101006.80;5252086;54;1143121;-79
2024/02/28 10:31:26;;;;;;;20.47;11.17;;;;;;;7.49;100.00;101006.80;5177877;54;1142677;-79
2024/02/28 10:36:34;;;;;;;22.03;10.43;;;;;;;7.48;100.00;101010.86;5204739;54;1142915;-78
2024/02/28 10:41:40;;;;;;;18.92;9.60;;;;;;;7.36;100.00;101013.23;5229854;54;1143185;-79
2024/02/28 10:46:51;;;;;;;15.47;9.40;;;;;;;7.22;100.00;101017.56;5291657;54;1140340;-79
2024/02/28 10:52:00;;;;;;;11.67;7.33;;;;;;;7.13;100.00;101014.99;5202892;55;1141475;-79
2024/02/28 10:57:08;;;;;;;17.67;8.40;;;;;;;7.08;100.00;101036.74;5223885;54;1193388;-78
2024/02/28 11:02:15;;;;;;;11.17;6.37;;;;;;;7.05;100.00;101033.81;5218797;54;1140890;-78
2024/02/28 11:07:24;;;;;;;11.20;6.47;;;;;;;7.03;100.00;101039.61;5216402;54;1138678;-79
2024/02/28 11:12:30;;;;;;;10.38;7.28;;;;;;;7.01;100.00;101044.14;5219014;54;1140839;-79
2024/02/28 11:17:36;;;;;;;12.05;7.75;;;;;;;6.98;100.00;101040.81;5231865;54;1140557;-79
2024/02/28 11:22:42;;;;;;;9.95;7.08;;;;;;;6.99;100.00;101037.26;5237279;54;1140812;-79
2024/02/28 11:27:50;;;;;;;12.85;7.30;;;;;;;6.97;100.00;101042.59;5222935;54;1138582;-79
2024/02/28 11:32:58;;;;;;;15.43;7.93;;;;;;;7.03;100.00;101046.19;5252553;54;1140998;-79
2024/02/28 11:38:03;;;;;;;11.17;7.40;;;;;;;7.00;100.00;101050.79;5220813;54;1140669;-80
2024/02/28 11:43:09;;;;;;;12.73;8.17;;;;;;;6.94;100.00;101053.27;5201363;54;1140952;-80
2024/02/28 11:48:16;;;;;;;16.10;9.27;;;;;;;6.88;100.00;101056.22;5231242;54;1140868;-80
2024/02/28 11:53:23;;;;;;;15.80;9.80;;;;;;;6.85;100.00;101051.62;5211408;55;1138727;-80
2024/02/28 11:58:28;;;;;;;19.57;10.40;;;;;;;6.86;100.00;101058.58;5211357;54;1138609;-81
2024/02/28 12:03:34;;;;;;;13.10;7.87;;;;;;;6.86;100.00;101058.58;5289495;54;1140958;-80
2024/02/28 12:08:39;;;;;;;13.35;7.97;;;;;;;6.83;100.00;101067.94;5310964;54;1138567;-80
2024/02/28 12:13:46;;;;;;;14.93;8.07;;;;;;;6.77;100.00;101070.41;5267640;54;1138703;-80
2024/02/28 12:18:52;;;;;;;16.83;10.47;;;;;;;6.69;100.00;101077.41;5200479;54;1138735;-80
2024/02/28 12:23:58;;;;;;;15.13;9.13;;;;;;;6.66;100.00;101076.71;5243322;54;1140887;-80
2024/02/28 12:29:04;;;;;;;16.37;10.70;;;;;;;6.64;100.00;101081.19;5200729;54;1138792;-80
2024/02/28 12:34:10;;;;;;;18.60;10.57;;;;;;;6.69;100.00;101077.41;5217786;54;1143001;-80
2024/02/28 12:39:15;;;;;;;23.50;12.97;;;;;;;6.73;100.00;101078.53;5309739;54;1142925;-80
2024/02/28 12:44:21;;;;;;;21.40;12.00;;;;;;;6.74;100.00;101081.55;5288373;54;1142628;-80
2024/02/28 12:49:27;;;;;;;21.63;12.90;;;;;;;6.70;100.00;101088.31;5281533;54;1221861;-80
2024/02/28 12:54:32;;;;;;;22.77;13.28;;;;;;;6.68;100.00;101085.37;5221014;55;1142922;-80
2024/02/28 12:59:40;;;;;;;18.23;10.98;;;;;;;6.66;100.00;101093.33;5283767;54;1142683;-80
2024/02/28 13:04:45;;;;;;;16.48;9.15;;;;;;;6.65;100.00;101099.98;5274737;54;1143103;-80
2024/02/28 13:09:58;;;;;;;33.20;16.02;;;;;;;6.52;100.00;101097.14;5308762;54;1140901;-80
2024/02/28 13:15:05;;;;;;;17.07;8.83;;;;;;;6.45;100.00;101096.20;5290960;54;1142878;-80
2024/02/28 13:20:11;;;;;;;21.90;10.27;;;;;;;6.41;100.00;101101.25;5309017;54;1140670;-80
2024/02/28 13:25:19;;;;;;;25.20;10.63;;;;;;;6.43;100.00;101101.53;5309272;54;1142884;-80
2024/02/28 13:30:25;;;;;;;20.05;10.00;;;;;;;6.47;100.00;101104.40;5288544;54;1143170;-80
2024/02/28 13:35:31;;;;;;;24.50;8.73;;;;;;;6.37;100.00;101094.45;5260051;54;1152449;-80
2024/02/28 13:40:39;;;;;;;15.00;8.55;;;;;;;6.44;100.00;101113.75;5270248;54;1141004;-80
2024/02/28 13:45:52;;;;;;;18.83;10.97;;;;;;;6.40;100.00;101109.59;5293853;54;1140817;-80
2024/02/28 13:50:59;;;;;;;18.23;11.53;;;;;;;6.31;100.00;101120.09;5271797;54;1142656;-80
2024/02/28 13:56:05;;;;;;;25.87;10.40;;;;;;;6.29;100.00;101122.41;5219433;55;1142687;-80
2024/02/28 14:01:12;;;;;;;18.77;9.30;;;;;;;6.19;100.00;101119.40;5279658;54;1142839;-79
2024/02/28 14:06:18;;;;;;;18.33;8.70;;;;;;;6.21;100.00;101124.58;5309572;54;1140527;-80
2024/02/28 14:11:24;;;;;;;14.70;8.53;;;;;;;6.20;100.00;101134.70;5309017;54;1140541;-80
2024/02/28 14:16:34;;;;;;;13.88;8.65;;;;;;;6.15;100.00;101135.37;5263261;54;1140849;-80
2024/02/28 14:21:40;;;;;;;14.43;8.90;;;;;;;6.14;100.00;101138.47;5331341;54;1140845;-80
2024/02/28 14:26:47;;;;;;;12.73;7.93;;;;;;;6.09;100.00;101142.27;5285567;54;1140553;-80
2024/02/28 14:31:53;;;;;;;18.90;8.97;;;;;;;6.02;100.00;101142.16;5267368;54;1140790;-80
2024/02/28 14:36:59;;;;;;;17.50;9.60;;;;;;;6.02;100.00;101146.09;5287973;54;1140775;-80
2024/02/28 14:42:09;;;;;;;31.53;21.77;;;;;;;5.95;100.00;101159.54;5266819;54;1140737;-80
2024/02/28 14:47:12;;;;;;;30.60;20.20;;;;;;;5.93;100.00;101163.16;5373218;54;1141008;-80
2024/02/28 14:52:18;;;;;;;26.17;16.97;;;;;;;5.91;100.00;101161.91;5341808;54;1143000;-80
2024/02/28 14:57:24;;;;;;;44.37;28.07;;;;;;;5.90;100.00;101164.16;5309875;54;1140944;-77
2024/02/28 15:02:29;;;;;;;34.35;28.02;;;;;;;5.89;100.00;101167.70;5303761;54;1143131;-77
2024/02/28 15:07:37;;;;;;;16.67;12.80;;;;;;;5.90;100.00;101173.34;5326807;54;1143029;-77
2024/02/28 15:12:45;;;;;;;18.12;13.38;;;;;;;5.95;100.00;101180.55;5280397;54;1142923;-77
2024/02/28 15:17:50;;;;;;;15.90;9.47;;;;;;;5.95;100.00;101180.55;5279012;54;1142802;-79
2024/02/28 15:22:56;;;;;;;16.67;11.23;;;;;;;5.89;100.00;101179.52;5242586;54;1140643;-79
2024/02/28 15:28:01;;;;;;;15.03;7.37;;;;;;;5.85;100.00;101181.85;5236345;54;1142903;-79
2024/02/28 15:33:07;;;;;;;14.20;7.10;;;;;;;5.87;100.00;101179.16;5279450;54;1140890;-79
2024/02/28 15:38:13;;;;;;;12.70;9.37;;;;;;;5.90;100.00;101183.84;5278161;54;1140713;-78
2024/02/28 15:43:18;;;;;;;10.20;7.30;;;;;;;5.91;100.00;101192.11;5216708;54;1140730;-78
2024/02/28 15:48:24;;;;;;;12.67;8.70;;;;;;;5.92;100.00;101193.81;5242773;54;1140635;-75
2024/02/28 15:53:29;;;;;;;12.15;8.68;;;;;;;5.92;100.00;101195.58;5176443;55;1140930;-78
2024/02/28 15:58:35;;;;;;;10.53;7.80;;;;;;;5.86;100.00;101203.24;5190176;55;1140826;-76
2024/02/28 16:03:41;;;;;;;14.13;8.40;;;;;;;5.91;100.00;101207.01;5245419;54;1140921;-78
2024/02/28 16:08:47;;;;;;;10.33;7.33;;;;;;;5.91;100.00;101217.51;5198665;54;1140932;-78
2024/02/28 16:13:52;;;;;;;9.70;7.28;;;;;;;5.84;100.00;101221.30;5231735;54;1140788;-79
2024/02/28 16:18:58;;;;;;;24.98;12.50;;;;;;;5.84;100.00;101222.61;5229853;54;1138834;-77
2024/02/28 16:24:04;;;;;;;13.67;8.37;;;;;;;5.80;100.00;101222.38;5286095;54;1143166;-79
2024/02/28 16:29:11;;;;;;;16.67;11.75;;;;;;;5.75;100.00;101234.40;5304559;54;1140986;-77
2024/02/28 16:34:23;;;;;;;13.10;8.07;;;;;;;5.74;100.00;101235.32;5258723;54;1142780;-80
2024/02/28 16:39:25;;;;;;;40.93;21.90;;;;;;;5.71;100.00;101247.72;5233787;54;1140626;-75
2024/02/28 16:44:31;;;;;;;16.20;10.60;;;;;;;5.68;100.00;101248.71;5246528;54;1142947;-75
2024/02/28 16:49:36;;;;;;;20.00;13.23;;;;;;;5.69;100.00;101253.50;5307700;54;1143045;-76
2024/02/28 16:54:42;;;;;;;21.93;14.73;;;;;;;5.72;100.00;101263.86;5310747;54;1142959;-76
2024/02/28 16:59:47;;;;;;;79.03;50.77;;;;;;;5.78;100.00;101265.77;5269833;54;1142762;-78
2024/02/28 17:04:53;;;;;;;29.05;18.85;;;;;;;5.75;100.00;101263.27;5336998;54;1142743;-78
2024/02/28 17:09:59;;;;;;;130.20;71.80;;;;;;;5.64;100.00;101276.89;5340924;54;1143201;-77
2024/02/28 17:15:06;;;;;;;291.80;168.30;;;;;;;5.59;100.00;101272.30;5273214;54;1145364;-75
2024/02/28 17:20:11;;;;;;;143.05;83.07;;;;;;;5.54;100.00;101272.10;5236554;54;1147133;-75
2024/02/28 17:25:17;;;;;;;33.13;23.00;;;;;;;5.59;100.00;101273.61;5246847;54;1145130;-75
2024/02/28 17:30:23;;;;;;;25.60;15.07;;;;;;;5.60;100.00;101275.31;5257519;54;1142742;-77
2024/02/28 17:35:28;;;;;;;17.27;10.37;;;;;;;5.61;100.00;101284.05;5230515;55;1142766;-74
2024/02/28 17:40:36;;;;;;;22.30;12.63;;;;;;;5.61;100.00;101294.53;5254114;54;1143030;-76
2024/02/28 17:45:41;;;;;;;17.50;10.93;;;;;;;5.58;100.00;101293.36;5257805;54;1143226;-76
2024/02/28 17:50:47;;;;;;;17.73;10.40;;;;;;;5.61;100.00;101302.41;5171931;55;1142914;-76
2024/02/28 17:55:53;;;;;;;106.07;49.13;;;;;;;5.61;100.00;101298.47;5189139;55;1142943;-78
2024/02/28 18:01:01;;;;;;;64.67;30.43;;;;;;;5.63;100.00;101308.45;5202193;55;1144939;-78
2024/02/28 18:06:06;;;;;;;36.68;18.70;;;;;;;5.63;100.00;101308.45;5257705;54;1142748;-80
2024/02/28 18:11:11;;;;;;;38.30;17.90;;;;;;;5.68;100.00;101314.78;5238727;54;1142890;-77
2024/02/28 18:16:19;;;;;;;27.27;13.33;;;;;;;5.61;100.00;101314.22;5281941;54;1142854;-78
2024/02/28 18:21:24;;;;;;;23.10;12.93;;;;;;;5.57;100.00;101317.43;5311325;54;1143210;-79
2024/02/28 18:26:30;;;;;;;30.48;17.42;;;;;;;5.49;100.00;101315.62;5273105;54;1142791;-79
2024/02/28 18:31:35;;;;;;;22.33;12.20;;;;;;;5.41;100.00;101320.33;5253800;54;1142922;-76
2024/02/28 18:36:41;;;;;;;33.03;18.27;;;;;;;5.40;100.00;101324.33;5221559;54;1143112;-80
2024/02/28 18:41:47;;;;;;;81.63;40.13;;;;;;;5.39;100.00;101327.41;5268861;54;1143276;-77
2024/02/28 18:46:53;;;;;;;79.60;41.17;;;;;;;5.36;100.00;101334.09;5321412;54;1142743;-78
2024/02/28 18:51:58;;;;;;;24.30;12.10;;;;;;;5.38;100.00;101340.59;5264360;54;1142970;-78
2024/02/28 18:57:04;;;;;;;36.30;17.67;;;;;;;5.37;100.00;101343.67;5220534;54;1142961;-79
2024/02/28 19:02:10;;;;;;;109.57;50.57;;;;;;;5.37;100.00;101341.50;5251289;54;1142917;-78
2024/02/28 19:07:16;;;;;;;51.70;26.77;;;;;;;5.35;100.00;101347.30;5228982;54;1144831;-78
2024/02/28 19:12:22;;;;;;;21.10;10.77;;;;;;;5.32;100.00;101353.52;5256543;54;1142751;-78
2024/02/28 19:17:29;;;;;;;12.87;8.47;;;;;;;5.26;100.00;101352.00;5247323;54;1142963;-78
2024/02/28 19:22:35;;;;;;;15.77;8.37;;;;;;;5.22;100.00;101356.13;5216537;55;1140921;-78
2024/02/28 19:27:41;;;;;;;10.33;7.53;;;;;;;5.23;100.00;101364.39;5201862;54;1140918;-77
2024/02/28 19:32:46;;;;;;;10.70;7.23;;;;;;;5.20;100.00;101369.75;5201379;54;1140957;-78
2024/02/28 19:37:52;;;;;;;8.75;6.15;;;;;;;5.26;100.00;101369.51;5180750;54;1140850;-77
2024/02/28 19:42:57;;;;;;;11.93;7.43;;;;;;;5.20;100.00;101375.00;5115254;54;1138948;-79
2024/02/28 19:48:04;;;;;;;10.98;6.58;;;;;;;5.16;100.00;101382.16;5149908;55;1140650;-80
2024/02/28 19:53:09;;;;;;;11.05;7.33;;;;;;;5.12;100.00;101383.20;5220773;55;1140819;-78
2024/02/28 19:58:15;;;;;;;8.95;5.87;;;;;;;5.07;100.00;101379.90;5200393;55;1140665;-80
2024/02/28 20:03:20;;;;;;;8.93;6.30;;;;;;;5.00;100.00;101385.02;5156110;55;1136644;-79
2024/02/28 20:08:29;;;;;;;8.57;6.20;;;;;;;4.87;100.00;101379.87;5142274;54;1136841;-78
2024/02/28 20:13:34;;;;;;;14.37;7.07;;;;;;;4.78;100.00;101389.40;5138942;55;1136706;-81
2024/02/28 20:18:40;;;;;;;11.43;7.00;;;;;;;4.74;100.00;101387.35;5146244;55;1138691;-81
2024/02/28 20:23:46;;;;;;;8.90;5.77;;;;;;;4.67;100.00;101385.05;5192723;55;1138681;-81
2024/02/28 20:28:52;;;;;;;8.07;6.43;;;;;;;4.64;100.00;101396.95;5346390;54;1136702;-80
2024/02/28 20:33:59;;;;;;;9.80;6.03;;;;;;;4.65;100.00;101390.80;5311976;54;1136437;-80
2024/02/28 20:39:05;;;;;;;7.83;5.40;;;;;;;4.68;100.00;101400.71;5299435;54;1136731;-80
2024/02/28 20:44:11;;;;;;;10.27;7.07;;;;;;;4.70;100.00;101396.73;5327621;54;1136551;-80
2024/02/28 20:49:17;;;;;;;10.07;6.27;;;;;;;4.72;100.00;101401.00;5223327;54;1138803;-80
2024/02/28 20:54:22;;;;;;;10.23;6.60;;;;;;;4.71;100.00;101401.91;5222205;53;1138638;-80
2024/02/28 20:59:28;;;;;;;10.20;6.47;;;;;;;4.70;100.00;101409.83;5224431;54;1140763;-80
2024/02/28 21:04:34;;;;;;;13.17;6.80;;;;;;;4.74;100.00;101413.55;5292080;54;1140698;-80
2024/02/28 21:09:47;;;;;;;9.40;6.87;;;;;;;4.70;100.00;101411.14;5311619;54;1140755;-80
2024/02/28 21:14:47;;;;;;;12.73;7.33;;;;;;;4.72;100.00;101405.38;5309278;54;1139053;-80
2024/02/28 21:19:53;;;;;;;10.97;7.50;;;;;;;4.69;100.00;101414.67;5332006;54;1140813;-80
2024/02/28 21:24:58;;;;;;;11.10;7.63;;;;;;;4.73;100.00;101411.02;5257859;54;1141036;-80
2024/02/28 21:30:07;;;;;;;10.38;6.80;;;;;;;4.73;100.00;101404.02;5295508;54;1140530;-80
2024/02/28 21:35:14;;;;;;;9.18;6.53;;;;;;;4.70;100.00;101404.13;5263540;54;1138899;-80
2024/02/28 21:40:23;;;;;;;7.53;5.80;;;;;;;4.70;100.00;101406.75;5258406;54;1144752;-80
2024/02/28 21:45:27;;;;;;;9.23;5.87;;;;;;;4.69;100.00;101410.73;5258418;55;1138983;-80
2024/02/28 21:50:34;;;;;;;10.53;6.28;;;;;;;4.65;100.00;101397.35;5126296;55;1138798;-80
2024/02/28 21:55:40;;;;;;;9.93;6.30;;;;;;;4.64;100.00;101408.28;5137139;55;1140872;-80
2024/02/28 22:00:45;;;;;;;10.90;7.22;;;;;;;4.63;100.00;101415.75;5142781;55;1136749;-80
2024/02/28 22:05:51;;;;;;;10.87;6.73;;;;;;;4.62;100.00;101414.49;5196622;54;1138602;-80
2024/02/28 22:10:57;;;;;;;9.57;6.67;;;;;;;4.60;100.00;101403.61;5220353;54;1138840;-80
2024/02/28 22:16:02;;;;;;;8.63;5.53;;;;;;;4.60;100.00;101409.31;5199814;55;1136625;-80
2024/02/28 22:21:08;;;;;;;8.30;6.30;;;;;;;4.60;100.00;101407.55;5200418;55;1136556;-80
2024/02/28 22:26:13;;;;;;;8.35;5.45;;;;;;;4.65;100.00;101399.52;5299676;54;1136907;-80
2024/02/28 22:31:19;;;;;;;7.58;5.58;;;;;;;4.66;100.00;101403.84;5301292;54;1138638;-80
2024/02/28 22:36:25;;;;;;;10.97;6.23;;;;;;;4.69;100.00;101402.87;5290893;54;1138809;-80
2024/02/28 22:41:30;;;;;;;9.98;5.97;;;;;;;4.67;100.00;101404.24;5290009;54;1138810;-80
2024/02/28 22:46:37;;;;;;;10.30;6.33;;;;;;;4.64;100.00;101398.27;5299917;54;1136631;-80
2024/02/28 22:51:42;;;;;;;13.23;6.53;;;;;;;4.66;100.00;101396.44;5119161;55;1138623;-80